createdAt,value
2023-02-23T00:02:11.692Z,101039.69
2023-02-23T00:04:41.873Z,101034.38
2023-02-23T00:07:13.007Z,101039.69
2023-02-23T00:09:44.269Z,101035.34
2023-02-23T00:12:13.445Z,101041.13
2023-02-23T00:14:42.631Z,101042.34
2023-02-23T00:17:11.893Z,101043.78
2023-02-23T00:19:41.507Z,101038.25
2023-02-23T00:22:14.766Z,101034.38
2023-02-23T00:24:43.941Z,101039.69
2023-02-23T00:27:13.185Z,101031.72
2023-02-23T00:29:42.035Z,101035.06
2023-02-23T00:32:10.407Z,101035.81
2023-02-23T00:34:39.736Z,101028.56
2023-02-23T00:37:08.137Z,101029.75
2023-02-23T00:39:36.845Z,101029.06
2023-02-23T00:42:05.711Z,101030.50
2023-02-23T00:44:34.732Z,101027.63
2023-02-23T00:47:04.752Z,101027.09
2023-02-23T00:49:33.607Z,101017.94
2023-02-23T00:52:04.174Z,101029.75
2023-02-23T00:54:33.475Z,101025.19
2023-02-23T00:57:02.687Z,101027.84
2023-02-23T00:59:31.585Z,101035.81
2023-02-23T01:02:00.514Z,101035.81
2023-02-23T01:04:29.778Z,101027.84
2023-02-23T01:06:58.599Z,101027.84
2023-02-23T01:09:28.415Z,101033.16
2023-02-23T01:11:56.745Z,101035.81
2023-02-23T01:14:25.702Z,101037.25
2023-02-23T01:16:54.579Z,101037.25
2023-02-23T01:19:23.926Z,101030.50
2023-02-23T01:21:52.783Z,101029.75
2023-02-23T01:24:22.538Z,101035.81
2023-02-23T01:26:52.392Z,101031.22
2023-02-23T01:29:21.265Z,101034.38
2023-02-23T01:31:52.298Z,101032.94
2023-02-23T01:34:21.644Z,101045.69
2023-02-23T01:36:51.484Z,101040.91
2023-02-23T01:39:20.354Z,101039.69
2023-02-23T01:41:49.198Z,101051.75
2023-02-23T01:44:18.129Z,101045.00
2023-02-23T01:46:49.045Z,101046.44
2023-02-23T01:49:18.927Z,101052.97
2023-02-23T01:51:47.750Z,101053.66
2023-02-23T01:54:16.932Z,101051.00
2023-02-23T01:56:45.700Z,101053.66
2023-02-23T01:59:14.500Z,101055.63
2023-02-23T02:01:43.272Z,101051.75
2023-02-23T02:04:12.172Z,101046.44
2023-02-23T02:06:41.021Z,101042.34
2023-02-23T02:09:10.320Z,101045.00
2023-02-23T02:11:40.406Z,101045.69
2023-02-23T02:14:08.849Z,101038.94
2023-02-23T02:16:37.674Z,101045.69
2023-02-23T02:19:06.483Z,101043.56
2023-02-23T02:21:35.682Z,101045.00
2023-02-23T02:24:04.462Z,101032.94
2023-02-23T02:26:33.594Z,101039.69
2023-02-23T02:29:03.843Z,101040.91
2023-02-23T02:31:34.559Z,101032.94
2023-02-23T02:34:03.869Z,101041.59
2023-02-23T02:36:33.094Z,101038.94
2023-02-23T02:39:01.837Z,101039.69
2023-02-23T02:41:31.016Z,101039.69
2023-02-23T02:44:00.229Z,101047.66
2023-02-23T02:46:29.053Z,101048.88
2023-02-23T02:48:57.907Z,101045.00
2023-02-23T02:51:26.248Z,101045.00
2023-02-23T02:53:55.087Z,101038.94
2023-02-23T02:56:24.008Z,101037.03
2023-02-23T02:58:52.915Z,101037.03
2023-02-23T03:01:21.798Z,101041.13
2023-02-23T03:03:52.400Z,101039.69
2023-02-23T03:06:20.227Z,101038.25
2023-02-23T03:08:49.874Z,101035.59
2023-02-23T03:11:19.453Z,101042.34
2023-02-23T03:13:48.262Z,101038.25
2023-02-23T03:16:17.175Z,101044.25
2023-02-23T03:18:45.995Z,101051.00
2023-02-23T03:21:15.250Z,101052.97
2023-02-23T03:23:44.387Z,101048.88
2023-02-23T03:26:18.086Z,101054.19
2023-02-23T03:28:46.857Z,101050.78
2023-02-23T03:31:16.461Z,101043.56
2023-02-23T03:33:44.910Z,101048.13
2023-02-23T03:36:13.448Z,101051.53
2023-02-23T03:38:43.569Z,101048.13
2023-02-23T03:41:12.400Z,101054.19
2023-02-23T03:43:41.568Z,101055.41
2023-02-23T03:46:10.058Z,101054.19
2023-02-23T03:48:38.637Z,101059.50
2023-02-23T03:51:07.429Z,101065.50
2023-02-23T03:53:36.690Z,101058.06
2023-02-23T03:56:09.476Z,101059.50
2023-02-23T03:58:38.705Z,101063.38
2023-02-23T04:01:07.943Z,101056.34
2023-02-23T04:03:37.358Z,101070.13
2023-02-23T04:06:06.115Z,101070.81
2023-02-23T04:08:35.337Z,101075.44
2023-02-23T04:11:04.010Z,101075.44
2023-02-23T04:13:33.215Z,101072.53
2023-02-23T04:16:02.447Z,101073.28
2023-02-23T04:18:30.957Z,101075.94
2023-02-23T04:20:59.525Z,101076.66
2023-02-23T04:23:28.258Z,101080.00
2023-02-23T04:25:57.486Z,101075.94
2023-02-23T04:28:26.491Z,101080.00
2023-02-23T04:30:54.653Z,101080.75
2023-02-23T04:33:24.020Z,101075.44
2023-02-23T04:35:53.368Z,101077.84
2023-02-23T04:38:22.666Z,101080.75
2023-02-23T04:40:51.560Z,101086.06
2023-02-23T04:43:20.984Z,101084.63
2023-02-23T04:45:50.300Z,101084.63
2023-02-23T04:48:19.659Z,101084.63
2023-02-23T04:50:49.039Z,101089.94
2023-02-23T04:53:17.651Z,101087.28
2023-02-23T04:55:47.418Z,101084.63
2023-02-23T04:58:16.282Z,101081.22
2023-02-23T05:00:45.484Z,101084.34
2023-02-23T05:03:14.220Z,101084.63
2023-02-23T05:05:42.987Z,101089.94
2023-02-23T05:08:12.214Z,101093.78
2023-02-23T05:10:41.255Z,101093.78
2023-02-23T05:13:09.516Z,101089.19
2023-02-23T05:15:38.792Z,101095.25
2023-02-23T05:18:07.803Z,101108.53
2023-02-23T05:20:36.410Z,101099.09
2023-02-23T05:23:05.675Z,101098.63
2023-02-23T05:25:34.921Z,101105.88
2023-02-23T05:28:04.202Z,101099.09
2023-02-23T05:30:33.262Z,101107.06
2023-02-23T05:33:01.035Z,101112.38
2023-02-23T05:35:30.348Z,101115.03
2023-02-23T05:37:59.606Z,101112.38
2023-02-23T05:40:28.905Z,101110.44
2023-02-23T05:42:58.089Z,101109.00
2023-02-23T05:45:27.337Z,101115.03
2023-02-23T05:47:56.680Z,101115.03
2023-02-23T05:50:25.902Z,101112.88
2023-02-23T05:52:55.093Z,101113.09
2023-02-23T05:55:24.402Z,101109.00
2023-02-23T05:57:53.645Z,101113.56
2023-02-23T06:00:22.607Z,101115.03
2023-02-23T06:02:51.020Z,101118.88
2023-02-23T06:05:19.767Z,101121.53
2023-02-23T06:07:52.743Z,101121.53
2023-02-23T06:10:21.930Z,101124.19
2023-02-23T06:12:51.154Z,101131.69
2023-02-23T06:15:20.223Z,101123.00
2023-02-23T06:17:49.028Z,101130.97
2023-02-23T06:20:18.378Z,101129.50
2023-02-23T06:22:47.558Z,101136.28
2023-02-23T06:25:16.812Z,101136.28
2023-02-23T06:27:46.161Z,101134.81
2023-02-23T06:30:15.341Z,101145.44
2023-02-23T06:32:44.585Z,101134.81
2023-02-23T06:35:16.680Z,101142.78
2023-02-23T06:37:45.599Z,101145.44
2023-02-23T06:40:14.500Z,101147.41
2023-02-23T06:42:43.268Z,101154.16
2023-02-23T06:45:12.422Z,101159.94
2023-02-23T06:47:41.644Z,101156.06
2023-02-23T06:50:10.824Z,101166.69
2023-02-23T06:52:40.306Z,101165.25
2023-02-23T06:55:09.206Z,101172.00
2023-02-23T06:57:37.966Z,101166.69
2023-02-23T07:00:07.294Z,101166.69
2023-02-23T07:02:36.655Z,101169.34
2023-02-23T07:05:05.492Z,101177.31
2023-02-23T07:07:34.736Z,101178.78
2023-02-23T07:10:03.984Z,101183.34
2023-02-23T07:12:32.366Z,101184.09
2023-02-23T07:15:01.623Z,101179.50
2023-02-23T07:17:30.400Z,101180.25
2023-02-23T07:19:59.554Z,101192.31
2023-02-23T07:22:28.783Z,101192.31
2023-02-23T07:24:57.333Z,101193.00
2023-02-23T07:27:26.045Z,101197.63
2023-02-23T07:29:55.198Z,101207.03
2023-02-23T07:32:23.456Z,101200.50
2023-02-23T07:34:53.912Z,101204.38
2023-02-23T07:37:22.498Z,101200.50
2023-02-23T07:39:51.112Z,101207.28
2023-02-23T07:42:20.445Z,101212.59
2023-02-23T07:44:49.699Z,101211.13
2023-02-23T07:47:18.960Z,101217.16
2023-02-23T07:49:48.342Z,101217.91
2023-02-23T07:52:17.722Z,101224.66
2023-02-23T07:54:47.026Z,101220.78
2023-02-23T07:57:15.825Z,101227.53
2023-02-23T07:59:45.202Z,101226.09
2023-02-23T08:02:14.719Z,101231.44
2023-02-23T08:04:43.208Z,101227.53
2023-02-23T08:07:11.603Z,101232.84
2023-02-23T08:09:41.363Z,101227.53
2023-02-23T08:12:11.573Z,101245.63
2023-02-23T08:14:40.856Z,101245.63
2023-02-23T08:17:10.050Z,101245.16
2023-02-23T08:19:39.204Z,101248.78
2023-02-23T08:22:10.004Z,101248.53
2023-02-23T08:24:39.785Z,101249.25
2023-02-23T08:27:09.177Z,101252.13
2023-02-23T08:29:37.976Z,101250.72
2023-02-23T08:32:06.941Z,101252.88
2023-02-23T08:34:36.257Z,101257.44
2023-02-23T08:37:05.548Z,101263.00
2023-02-23T08:39:34.763Z,101261.56
2023-02-23T08:42:03.272Z,101263.00
2023-02-23T08:44:31.920Z,101260.34
2023-02-23T08:47:00.656Z,101265.66
2023-02-23T08:49:29.483Z,101267.09
2023-02-23T08:51:58.537Z,101272.41
2023-02-23T08:54:27.211Z,101279.19
2023-02-23T08:56:56.136Z,101273.13
2023-02-23T08:59:24.322Z,101289.81
2023-02-23T09:01:53.171Z,101294.19
2023-02-23T09:04:22.024Z,101286.41
2023-02-23T09:06:51.242Z,101287.84
2023-02-23T09:09:20.274Z,101296.06
2023-02-23T09:11:48.770Z,101290.72
2023-02-23T09:14:18.136Z,101290.72
2023-02-23T09:16:47.001Z,101297.50
2023-02-23T09:19:16.020Z,101300.41
2023-02-23T09:21:48.435Z,101304.28
2023-02-23T09:24:17.278Z,101300.41
2023-02-23T09:26:46.406Z,101300.63
2023-02-23T09:29:15.214Z,101305.47
2023-02-23T09:31:44.586Z,101311.50
2023-02-23T09:34:13.996Z,101311.50
2023-02-23T09:36:43.200Z,101318.28
2023-02-23T09:39:26.406Z,101309.59
2023-02-23T09:42:02.375Z,101319.50
2023-02-23T09:44:31.833Z,101316.84
2023-02-23T09:47:01.073Z,101316.09
2023-02-23T09:49:29.971Z,101310.78
2023-02-23T09:51:58.565Z,101322.41
2023-02-23T09:54:27.831Z,101322.63
2023-02-23T09:56:56.694Z,101325.53
2023-02-23T09:59:25.666Z,101325.53
2023-02-23T10:01:53.904Z,101326.25
2023-02-23T10:04:27.164Z,101324.06
2023-02-23T10:06:55.789Z,101318.75
2023-02-23T10:09:24.582Z,101321.88
2023-02-23T10:11:53.880Z,101315.84
2023-02-23T10:14:22.704Z,101322.41
2023-02-23T10:16:52.049Z,101322.41
2023-02-23T10:19:20.912Z,101320.22
2023-02-23T10:21:50.147Z,101325.06
2023-02-23T10:24:18.922Z,101325.06
2023-02-23T10:26:47.892Z,101331.78
2023-02-23T10:29:17.230Z,101340.03
2023-02-23T10:31:46.253Z,101332.06
2023-02-23T10:34:14.944Z,101330.84
2023-02-23T10:36:44.265Z,101326.97
2023-02-23T10:39:13.550Z,101329.13
2023-02-23T10:41:43.035Z,101338.09
2023-02-23T10:44:16.964Z,101347.25
2023-02-23T10:46:46.599Z,101344.81
2023-02-23T10:49:16.103Z,101355.44
2023-02-23T10:51:45.046Z,101350.84
2023-02-23T10:54:14.507Z,101347.72
2023-02-23T10:56:43.891Z,101343.88
2023-02-23T10:59:13.142Z,101346.75
2023-02-23T11:01:55.423Z,101353.50
2023-02-23T11:04:29.562Z,101354.97
2023-02-23T11:07:02.567Z,101359.28
2023-02-23T11:09:44.475Z,101356.88
2023-02-23T11:12:16.054Z,101358.34
2023-02-23T11:14:45.030Z,101354.44
2023-02-23T11:17:13.736Z,101359.75
2023-02-23T11:19:42.696Z,101350.56
2023-02-23T11:22:11.915Z,101350.56
2023-02-23T11:24:41.061Z,101352.00
2023-02-23T11:27:09.840Z,101346.69
2023-02-23T11:29:39.054Z,101348.91
2023-02-23T11:32:10.216Z,101350.81
2023-02-23T11:34:40.082Z,101341.84
2023-02-23T11:37:09.515Z,101348.63
2023-02-23T11:39:42.283Z,101344.75
2023-02-23T11:42:11.201Z,101351.50
2023-02-23T11:44:40.178Z,101353.66
2023-02-23T11:47:08.888Z,101349.81
2023-02-23T11:49:37.780Z,101346.66
2023-02-23T11:52:08.133Z,101344.00
2023-02-23T11:54:36.857Z,101346.16
2023-02-23T11:57:05.668Z,101345.41
2023-02-23T11:59:34.826Z,101348.09
2023-02-23T12:02:04.166Z,101347.38
2023-02-23T12:04:33.064Z,101348.09
2023-02-23T12:07:02.388Z,101345.41
2023-02-23T12:09:31.716Z,101343.50
2023-02-23T12:12:03.937Z,101328.28
2023-02-23T12:14:32.623Z,101329.75
2023-02-23T12:17:03.638Z,101324.41
2023-02-23T12:19:33.462Z,101340.38
2023-02-23T12:22:01.862Z,101338.91
2023-02-23T12:24:29.570Z,101354.88
2023-02-23T12:26:58.643Z,101354.13
2023-02-23T12:29:27.190Z,101353.41
2023-02-23T12:31:56.089Z,101352.00
2023-02-23T12:34:25.411Z,101361.16
2023-02-23T12:36:54.808Z,101352.94
2023-02-23T12:39:23.904Z,101351.03
2023-02-23T12:41:52.144Z,101354.16
2023-02-23T12:44:21.451Z,101355.38
2023-02-23T12:46:50.691Z,101356.59
2023-02-23T12:49:19.961Z,101353.22
2023-02-23T12:51:49.256Z,101351.03
2023-02-23T12:54:18.538Z,101348.16
2023-02-23T12:56:47.683Z,101346.69
2023-02-23T12:59:17.000Z,101349.34
2023-02-23T13:01:46.246Z,101352.00
2023-02-23T13:04:15.088Z,101361.22
2023-02-23T13:06:47.735Z,101357.81
2023-02-23T13:09:17.041Z,101363.66
2023-02-23T13:11:46.430Z,101357.09
2023-02-23T13:14:15.701Z,101351.53
2023-02-23T13:16:45.124Z,101351.75
2023-02-23T13:19:13.996Z,101348.44
2023-02-23T13:21:43.304Z,101343.78
2023-02-23T13:24:12.032Z,101352.00
2023-02-23T13:26:41.442Z,101350.09
2023-02-23T13:29:10.007Z,101338.97
2023-02-23T13:31:38.858Z,101341.84
2023-02-23T13:34:08.112Z,101343.31
2023-02-23T13:36:40.788Z,101338.00
2023-02-23T13:39:18.005Z,101336.53
2023-02-23T13:41:48.268Z,101333.16
2023-02-23T13:44:17.487Z,101331.94
2023-02-23T13:46:46.847Z,101330.00
2023-02-23T13:49:16.219Z,101328.78
2023-02-23T13:51:49.752Z,101330.22
2023-02-23T13:54:19.111Z,101329.00
2023-02-23T13:56:48.113Z,101334.56
2023-02-23T13:59:16.703Z,101327.81
2023-02-23T14:01:46.025Z,101341.09
2023-02-23T14:04:15.440Z,101340.16
2023-02-23T14:06:44.652Z,101340.88
2023-02-23T14:09:13.412Z,101346.19
2023-02-23T14:11:42.423Z,101343.53
2023-02-23T14:14:11.035Z,101355.38
2023-02-23T14:16:40.054Z,101351.50
2023-02-23T14:19:09.344Z,101351.50
2023-02-23T14:21:38.309Z,101352.72
2023-02-23T14:24:06.926Z,101361.91
2023-02-23T14:26:35.717Z,101366.00
2023-02-23T14:29:04.420Z,101358.03
2023-02-23T14:31:33.811Z,101362.66
2023-02-23T14:34:02.560Z,101361.69
2023-02-23T14:36:31.914Z,101366.25
2023-02-23T14:39:01.180Z,101364.84
2023-02-23T14:41:30.525Z,101358.78
2023-02-23T14:43:59.636Z,101362.66
2023-02-23T14:46:28.305Z,101362.41
2023-02-23T14:48:57.514Z,101354.44
2023-02-23T14:51:26.796Z,101349.09
2023-02-23T14:53:56.121Z,101341.88
2023-02-23T14:56:35.471Z,101339.25
2023-02-23T14:59:07.063Z,101348.63
2023-02-23T15:01:35.770Z,101349.66
2023-02-23T15:04:05.052Z,101354.22
2023-02-23T15:06:34.373Z,101354.22
2023-02-23T15:09:03.664Z,101358.06
2023-02-23T15:11:32.189Z,101356.63
2023-02-23T15:14:00.739Z,101352.75
2023-02-23T15:16:30.173Z,101357.38
2023-02-23T15:18:59.429Z,101357.38
2023-02-23T15:21:28.650Z,101350.63
2023-02-23T15:23:58.068Z,101355.94
2023-02-23T15:26:26.902Z,101361.25
2023-02-23T15:28:55.616Z,101353.03
2023-02-23T15:31:24.915Z,101356.91
2023-02-23T15:33:54.253Z,101361.50
2023-02-23T15:36:23.666Z,101364.66
2023-02-23T15:38:52.967Z,101362.47
2023-02-23T15:41:22.306Z,101363.19
2023-02-23T15:43:51.666Z,101360.28
2023-02-23T15:46:20.870Z,101360.28
2023-02-23T15:48:51.058Z,101364.16
2023-02-23T15:51:21.804Z,101358.84
2023-02-23T15:53:51.153Z,101357.41
2023-02-23T15:56:19.878Z,101362.72
2023-02-23T15:58:56.513Z,101368.03
2023-02-23T16:01:26.382Z,101370.44
2023-02-23T16:03:55.844Z,101371.19
2023-02-23T16:06:26.193Z,101375.78
2023-02-23T16:08:55.427Z,101374.31
2023-02-23T16:11:24.686Z,101378.22
2023-02-23T16:13:54.035Z,101376.75
2023-02-23T16:16:23.495Z,101370.00
2023-02-23T16:18:52.741Z,101375.31
2023-02-23T16:21:22.000Z,101375.78
2023-02-23T16:23:50.381Z,101371.66
2023-02-23T16:26:19.962Z,101376.28
2023-02-23T16:28:49.389Z,101374.84
2023-02-23T16:31:18.704Z,101379.41
2023-02-23T16:33:48.017Z,101384.00
2023-02-23T16:36:17.018Z,101384.00
2023-02-23T16:38:49.637Z,101389.06
2023-02-23T16:41:18.870Z,101386.41
2023-02-23T16:43:48.177Z,101389.06
2023-02-23T16:46:17.819Z,101388.84
2023-02-23T16:48:46.551Z,101383.53
2023-02-23T16:51:15.223Z,101393.44
2023-02-23T16:53:44.129Z,101399.94
2023-02-23T16:56:13.596Z,101405.03
2023-02-23T16:58:42.599Z,101396.34
2023-02-23T17:01:11.250Z,101402.13
2023-02-23T17:03:47.314Z,101406.72
2023-02-23T17:06:20.225Z,101412.50
2023-02-23T17:08:57.497Z,101407.94
2023-02-23T17:11:29.414Z,101409.84
2023-02-23T17:13:58.151Z,101411.56
2023-02-23T17:16:27.445Z,101409.16
2023-02-23T17:18:56.697Z,101414.22
2023-02-23T17:21:25.625Z,101424.59
2023-02-23T17:23:54.326Z,101428.72
2023-02-23T17:26:23.638Z,101425.31
2023-02-23T17:28:52.581Z,101429.19
2023-02-23T17:31:22.908Z,101425.84
2023-02-23T17:33:54.095Z,101433.06
2023-02-23T17:36:23.442Z,101427.03
2023-02-23T17:38:52.226Z,101430.16
2023-02-23T17:41:21.900Z,101433.53
2023-02-23T17:43:51.373Z,101440.06
2023-02-23T17:46:20.277Z,101444.63
2023-02-23T17:48:49.232Z,101444.63
2023-02-23T17:51:17.621Z,101447.28
2023-02-23T17:53:46.857Z,101442.00
2023-02-23T17:56:15.908Z,101455.25
2023-02-23T17:58:44.293Z,101458.44
2023-02-23T18:01:12.340Z,101455.50
2023-02-23T18:03:41.160Z,101465.41
2023-02-23T18:06:10.730Z,101466.13
2023-02-23T18:08:40.122Z,101463.25
2023-02-23T18:11:09.388Z,101461.81
2023-02-23T18:13:38.628Z,101469.78
2023-02-23T18:16:08.098Z,101465.66
2023-02-23T18:18:37.448Z,101470.97
2023-02-23T18:21:06.793Z,101473.63
2023-02-23T18:23:35.825Z,101480.13
2023-02-23T18:26:04.209Z,101473.38
2023-02-23T18:28:33.007Z,101479.91
2023-02-23T18:31:03.260Z,101480.38
2023-02-23T18:33:33.583Z,101478.94
2023-02-23T18:36:02.824Z,101491.47
2023-02-23T18:38:31.919Z,101492.66
2023-02-23T18:41:04.298Z,101496.56
2023-02-23T18:43:33.344Z,101497.06
2023-02-23T18:46:01.999Z,101498.97
2023-02-23T18:48:31.489Z,101498.97
2023-02-23T18:51:00.234Z,101505.72
2023-02-23T18:53:29.521Z,101503.06
2023-02-23T18:55:58.859Z,101501.88
2023-02-23T18:58:28.218Z,101498.97
2023-02-23T19:00:56.675Z,101493.41
2023-02-23T19:03:25.939Z,101495.09
2023-02-23T19:05:55.101Z,101504.28
2023-02-23T19:08:23.877Z,101500.41
2023-02-23T19:10:52.723Z,101499.72
2023-02-23T19:13:21.129Z,101498.97
2023-02-23T19:15:50.190Z,101498.97
2023-02-23T19:18:19.250Z,101498.97
2023-02-23T19:20:47.942Z,101492.19
2023-02-23T19:23:16.456Z,101504.28
2023-02-23T19:25:45.107Z,101493.66
2023-02-23T19:28:13.839Z,101490.75
2023-02-23T19:30:43.107Z,101484.22
2023-02-23T19:33:12.480Z,101485.44
2023-02-23T19:35:41.547Z,101479.41
2023-02-23T19:38:09.714Z,101473.38
2023-02-23T19:40:39.054Z,101468.06
2023-02-23T19:43:07.843Z,101473.84
2023-02-23T19:45:37.098Z,101477.25
2023-02-23T19:48:06.390Z,101466.63
2023-02-23T19:50:35.694Z,101475.78
2023-02-23T19:53:05.831Z,101475.78
2023-02-23T19:55:36.298Z,101481.09
2023-02-23T19:58:05.678Z,101481.09
2023-02-23T20:00:34.192Z,101482.28
2023-02-23T20:03:02.825Z,101487.59
2023-02-23T20:05:32.181Z,101476.97
2023-02-23T20:08:01.030Z,101483.50
2023-02-23T20:10:30.249Z,101477.50
2023-02-23T20:12:59.495Z,101483.50
2023-02-23T20:15:28.196Z,101482.06
2023-02-23T20:17:57.570Z,101487.38
2023-02-23T20:20:25.429Z,101475.28
2023-02-23T20:22:54.839Z,101479.16
2023-02-23T20:25:24.138Z,101487.13
2023-02-23T20:27:53.145Z,101484.47
2023-02-23T20:30:25.480Z,101483.00
2023-02-23T20:32:54.780Z,101482.25
2023-02-23T20:35:25.192Z,101483.00
2023-02-23T20:37:54.470Z,101471.63
2023-02-23T20:40:22.909Z,101484.25
2023-02-23T20:42:51.907Z,101474.81
2023-02-23T20:45:20.537Z,101473.34
2023-02-23T20:47:49.860Z,101473.34
2023-02-23T20:50:19.240Z,101477.19
2023-02-23T20:52:48.680Z,101477.94
2023-02-23T20:55:17.740Z,101471.88
2023-02-23T20:57:46.388Z,101467.31
2023-02-23T21:00:15.665Z,101470.44
2023-02-23T21:02:44.502Z,101461.03
2023-02-23T21:05:13.837Z,101466.34
2023-02-23T21:07:43.164Z,101463.69
2023-02-23T21:10:12.419Z,101455.00
2023-02-23T21:12:41.766Z,101456.94
2023-02-23T21:15:11.073Z,101463.44
2023-02-23T21:17:40.379Z,101460.78
2023-02-23T21:20:09.738Z,101459.34
2023-02-23T21:22:39.009Z,101454.75
2023-02-23T21:25:07.982Z,101452.56
2023-02-23T21:27:36.551Z,101447.25
2023-02-23T21:30:06.353Z,101450.41
2023-02-23T21:32:34.940Z,101450.41
2023-02-23T21:35:03.652Z,101439.06
2023-02-23T21:37:33.064Z,101455.72
2023-02-23T21:40:01.419Z,101448.94
2023-02-23T21:42:30.670Z,101448.22
2023-02-23T21:44:59.882Z,101448.22
2023-02-23T21:47:28.284Z,101451.34
2023-02-23T21:49:57.545Z,101444.59
2023-02-23T21:52:26.828Z,101454.50
2023-02-23T21:54:56.231Z,101449.19
2023-02-23T21:57:24.830Z,101453.03
2023-02-23T21:59:53.518Z,101453.03
2023-02-23T22:02:26.734Z,101450.38
2023-02-23T22:04:56.037Z,101453.03
2023-02-23T22:07:25.221Z,101451.59
2023-02-23T22:09:54.494Z,101446.28
2023-02-23T22:12:23.998Z,101450.13
2023-02-23T22:14:53.433Z,101456.16
2023-02-23T22:17:28.491Z,101442.16
2023-02-23T22:19:57.973Z,101454.00
2023-02-23T22:22:27.427Z,101452.53
2023-02-23T22:24:56.685Z,101454.00
2023-02-23T22:27:25.669Z,101447.22
2023-02-23T22:29:54.333Z,101451.09
2023-02-23T22:32:23.600Z,101450.38
2023-02-23T22:34:52.375Z,101446.97
2023-02-23T22:37:21.670Z,101448.19
2023-02-23T22:39:51.048Z,101441.41
2023-02-23T22:42:20.449Z,101442.88
2023-02-23T22:44:49.844Z,101438.75
2023-02-23T22:47:18.465Z,101432.78
2023-02-23T22:49:47.981Z,101434.69
2023-02-23T22:52:18.140Z,101434.69
2023-02-23T22:54:47.400Z,101432.50
2023-02-23T22:57:16.650Z,101433.22
2023-02-23T22:59:45.939Z,101429.13
2023-02-23T23:02:15.109Z,101425.00
2023-02-23T23:04:44.471Z,101431.78
2023-02-23T23:07:12.876Z,101417.78
2023-02-23T23:09:42.210Z,101414.38
2023-02-23T23:12:11.364Z,101416.34
2023-02-23T23:14:40.591Z,101403.75
2023-02-23T23:17:09.887Z,101412.94
2023-02-23T23:19:37.819Z,101406.19
2023-02-23T23:22:05.982Z,101402.09
2023-02-23T23:24:34.757Z,101398.72
2023-02-23T23:27:04.117Z,101397.97
2023-02-23T23:29:32.910Z,101391.22
2023-02-23T23:32:02.165Z,101381.81
2023-02-23T23:34:31.480Z,101379.16
2023-02-23T23:37:00.684Z,101381.56
2023-02-23T23:39:29.953Z,101376.25
2023-02-23T23:41:59.175Z,101374.81
2023-02-23T23:44:27.860Z,101382.53
2023-02-23T23:46:56.780Z,101382.53
2023-02-23T23:49:25.472Z,101375.78
2023-02-23T23:51:53.902Z,101374.34
2023-02-23T23:54:23.298Z,101370.47
2023-02-23T23:56:52.662Z,101374.34
2023-02-23T23:59:21.959Z,101375.78
